Aérodrome :
LOGIN :

S'inscrire | Disclaimer

   EN    FR    IT 

 










Légende :    VFR   VFR Marginal   IFR   IFR Intensif   IFR Très Intensif
Visi : 
Plafond : 
>= 8 km
>= 3000ft
5 à 8 km
1000 à 3000 ft
1500m à 5 km
500 à 1000 ft
800 à 1500m
200 à 500 ft
< 800m
< 200 ft
Symboles :   Orages  Brouillard  Fortes neiges  Fortes précipitations  Vent > 20 kt
SIGMETs :   Divers  Orages  Givrage  Turbulence  Onde Orograph.  Cendres Volcan.






- Altitude de l'aérodrome : 312 ft
- Code IATA : SAW


LTFJ - Sabiha Gokcen

DERNIER METAR :
  • 281120Z 31005KT 270V350 8000 -RA BKN010 BKN025 09/07 Q1011 NOSIG RMK RWY24 34005KT 300V010

METARs EXPIRÉS :
  • 281050Z 35004KT 300V010 7000 -RA BKN010 BKN025 09/07 Q1011 NOSIG
  • 281020Z 33004KT 290V010 7000 -RA BKN010 BKN025 08/07 Q1012 NOSIG RMK RWY24 01003KT 340V040
  • 280950Z VRB05KT 8000 BKN010 BKN026 09/06 Q1012 NOSIG RMK RWY24 36006KT
  • 280920Z 33004KT 300V360 9999 BKN010 BKN026 09/07 Q1012 NOSIG RMK RWY24 36004KT 310V040
  • 280850Z 35005KT 9999 BKN011 BKN026 09/07 Q1012 NOSIG RMK RWY24 35005KT 320V030

TAF TAF LTFJ
Valide du 28 à 12h jusqu'au 29 à 12h UTC


281040Z 2812/2912 36007KT 7000 -RA BKN010 BKN025
PROB30 2815/2819 4000 RA
TEMPO 2902/2906 2500 RA BR



MET'MAP, la Météo Aéronautique d'un coup d'oeil ! - Copyright ORBIFLY Décembre 2007 - Disclaimer

ORBIFLY MET'MAP TEAM :

Programmation & Développement : Alexandra Zaïnal
Sur une idée originale de : Baudouin d'Aumeries
Assistance à la programmation : Marc-Olivier Méhu
Soutien technique & logistique : Manuel Goepfert

Contact : metmap@orbifly.com




SOURCES & CREDITS :

   NOAA